AMX005 MMMX-LFPG
Flight info
| Callsign | AMX005 |
|---|---|
| Flight time | N/A |
| Altitude | 38000 |
| Route | IKLAN2A IKLAN UT140 TAM UM575 CLONN M575 TBD DCT SJI Q56 CATLN Q22 BEARI DCT FAK DCT RBV DCT JFK DCT ENE DCT DANOL DCT NEEKO/M086F350 NATZ GISTI/N0497F350 DCT CRK DCT NORLA DCT PEWBI DCT OXLOW DCT SFD UM605 BIBAX |
| Aircraft | B789/H-SDE1E2E3FGHIJ2J3J4J5M1RWXY/LB1D1 |
Departure
| Time | N/A |
|---|---|
| Airport | Mexico City Benito Juárez International Airport (MMMX) |
Arrival
| Time | 2026-05-01 07:55 |
|---|---|
| Airport | Charles de Gaulle International Airport (LFPG) |
| Time | Latitude | Longitude | Altitude | Speed | Heading |
|---|---|---|---|---|---|
| 2026-05-01 07:23 | 50.55862 | -0.10357 | 38181 ft | 470 kts | 115° |
| 2026-05-01 07:24 | 50.51997 | 0.03744 | 38186 ft | 470 kts | 115° |
| 2026-05-01 07:24 | 50.49404 | 0.13157 | 38087 ft | 466 kts | 115° |
| 2026-05-01 07:24 | 50.48113 | 0.17829 | 37213 ft | 468 kts | 115° |
| 2026-05-01 07:25 | 50.46820 | 0.22500 | 36603 ft | 464 kts | 116° |
| 2026-05-01 07:25 | 50.45536 | 0.27127 | 35960 ft | 461 kts | 116° |
| 2026-05-01 07:25 | 50.44257 | 0.31729 | 35289 ft | 459 kts | 116° |
| 2026-05-01 07:25 | 50.42983 | 0.36302 | 34610 ft | 457 kts | 116° |
| 2026-05-01 07:26 | 50.41709 | 0.40865 | 33857 ft | 456 kts | 117° |
| 2026-05-01 07:26 | 50.40443 | 0.45394 | 33138 ft | 452 kts | 117° |
| 2026-05-01 07:26 | 50.39180 | 0.49902 | 32400 ft | 450 kts | 117° |
| 2026-05-01 07:26 | 50.37920 | 0.54391 | 31619 ft | 451 kts | 117° |
| 2026-05-01 07:27 | 50.36634 | 0.58905 | 30809 ft | 454 kts | 120° |
| 2026-05-01 07:27 | 50.34985 | 0.63131 | 29936 ft | 456 kts | 129° |
| 2026-05-01 07:27 | 50.32898 | 0.66848 | 29107 ft | 454 kts | 138° |
| 2026-05-01 07:27 | 50.30494 | 0.70008 | 28245 ft | 448 kts | 142° |
| 2026-05-01 07:28 | 50.28079 | 0.73053 | 27427 ft | 444 kts | 142° |
| 2026-05-01 07:28 | 50.25588 | 0.75683 | 27370 ft | 421 kts | 152° |
| 2026-05-01 07:28 | 50.23048 | 0.77753 | 27211 ft | 405 kts | 154° |
| 2026-05-01 07:28 | 50.20556 | 0.79792 | 26818 ft | 404 kts | 152° |
| 2026-05-01 07:29 | 50.18103 | 0.81969 | 26436 ft | 406 kts | 150° |
| 2026-05-01 07:29 | 50.15686 | 0.84138 | 26053 ft | 405 kts | 151° |
| 2026-05-01 07:29 | 50.13223 | 0.86269 | 25696 ft | 404 kts | 152° |
| 2026-05-01 07:29 | 50.10764 | 0.88368 | 25333 ft | 403 kts | 152° |
| 2026-05-01 07:30 | 50.08322 | 0.90482 | 24977 ft | 401 kts | 151° |
| 2026-05-01 07:30 | 50.05889 | 0.92602 | 24616 ft | 399 kts | 152° |
| 2026-05-01 07:30 | 50.03492 | 0.94677 | 24507 ft | 385 kts | 152° |
| 2026-05-01 07:30 | 50.01219 | 0.96635 | 23861 ft | 373 kts | 152° |
| 2026-05-01 07:31 | 49.98959 | 0.98580 | 23212 ft | 368 kts | 152° |
| 2026-05-01 07:31 | 49.92337 | 1.04281 | 21194 ft | 357 kts | 152° |
| 2026-05-01 07:32 | 49.88027 | 1.07979 | 19925 ft | 350 kts | 152° |
| 2026-05-01 07:32 | 49.85904 | 1.09799 | 19309 ft | 347 kts | 152° |
| 2026-05-01 07:33 | 49.81720 | 1.13379 | 18225 ft | 337 kts | 152° |
| 2026-05-01 07:33 | 49.79701 | 1.15104 | 18216 ft | 330 kts | 152° |
| 2026-05-01 07:33 | 49.75578 | 1.18620 | 18030 ft | 341 kts | 152° |
| 2026-05-01 07:34 | 49.73506 | 1.20386 | 18003 ft | 338 kts | 152° |
| 2026-05-01 07:34 | 49.69393 | 1.23885 | 17393 ft | 336 kts | 152° |
| 2026-05-01 07:34 | 49.67337 | 1.25631 | 16746 ft | 336 kts | 152° |
| 2026-05-01 07:35 | 49.65294 | 1.27364 | 16135 ft | 333 kts | 152° |
| 2026-05-01 07:35 | 49.63295 | 1.29059 | 15540 ft | 331 kts | 152° |
| 2026-05-01 07:35 | 49.61281 | 1.30765 | 14964 ft | 329 kts | 152° |
| 2026-05-01 07:35 | 49.59280 | 1.32458 | 14376 ft | 327 kts | 152° |
| 2026-05-01 07:36 | 49.57289 | 1.34141 | 13797 ft | 325 kts | 152° |
| 2026-05-01 07:36 | 49.55310 | 1.35812 | 13158 ft | 323 kts | 152° |
| 2026-05-01 07:36 | 49.53350 | 1.37467 | 12541 ft | 321 kts | 152° |
| 2026-05-01 07:36 | 49.51396 | 1.39114 | 11918 ft | 319 kts | 152° |
| 2026-05-01 07:37 | 49.47363 | 1.42506 | 10147 ft | 343 kts | 152° |
| 2026-05-01 07:37 | 49.45276 | 1.44262 | 9994 ft | 332 kts | 152° |
| 2026-05-01 07:37 | 49.43321 | 1.45907 | 9979 ft | 310 kts | 152° |
| 2026-05-01 07:38 | 49.41455 | 1.47471 | 9982 ft | 303 kts | 152° |
| 2026-05-01 07:38 | 49.39606 | 1.49019 | 9984 ft | 301 kts | 152° |
| 2026-05-01 07:38 | 49.35919 | 1.52107 | 9983 ft | 303 kts | 152° |
| 2026-05-01 07:39 | 49.34097 | 1.53716 | 9985 ft | 302 kts | 144° |
| 2026-05-01 07:39 | 49.32688 | 1.56115 | 10005 ft | 306 kts | 122° |
| 2026-05-01 07:39 | 49.32082 | 1.62463 | 10005 ft | 315 kts | 76° |
| 2026-05-01 07:40 | 49.32955 | 1.65553 | 10008 ft | 317 kts | 64° |
| 2026-05-01 07:40 | 49.33991 | 1.68534 | 10010 ft | 317 kts | 62° |
| 2026-05-01 07:40 | 49.35089 | 1.71473 | 10010 ft | 317 kts | 62° |
| 2026-05-01 07:40 | 49.35796 | 1.74607 | 10026 ft | 309 kts | 89° |
| 2026-05-01 07:41 | 49.35398 | 1.77657 | 10017 ft | 282 kts | 122° |
| 2026-05-01 07:41 | 49.34066 | 1.79717 | 10019 ft | 271 kts | 151° |
| 2026-05-01 07:41 | 49.30578 | 1.81964 | 9733 ft | 272 kts | 161° |
| 2026-05-01 07:42 | 49.28799 | 1.82922 | 9339 ft | 269 kts | 161° |
| 2026-05-01 07:42 | 49.27036 | 1.83853 | 8921 ft | 266 kts | 161° |
| 2026-05-01 07:42 | 49.25294 | 1.84771 | 8532 ft | 263 kts | 161° |
| 2026-05-01 07:42 | 49.23567 | 1.85678 | 8181 ft | 260 kts | 161° |
| 2026-05-01 07:43 | 49.22431 | 1.86269 | 8000 ft | 260 kts | 161° |
| 2026-05-01 07:43 | 49.20721 | 1.87158 | 7685 ft | 259 kts | 161° |
| 2026-05-01 07:43 | 49.17318 | 1.88922 | 7065 ft | 257 kts | 161° |
| 2026-05-01 07:44 | 49.13456 | 1.90912 | 6436 ft | 245 kts | 161° |
| 2026-05-01 07:44 | 49.10785 | 1.92280 | 6027 ft | 241 kts | 161° |
| 2026-05-01 07:45 | 49.09198 | 1.93095 | 5911 ft | 240 kts | 161° |
| 2026-05-01 07:45 | 49.07617 | 1.93907 | 5766 ft | 240 kts | 161° |
| 2026-05-01 07:45 | 49.06032 | 1.94718 | 5648 ft | 240 kts | 161° |
| 2026-05-01 07:45 | 49.04448 | 1.95530 | 5517 ft | 239 kts | 162° |
| 2026-05-01 07:46 | 49.02873 | 1.96341 | 5392 ft | 239 kts | 162° |
| 2026-05-01 07:46 | 49.01296 | 1.97152 | 5264 ft | 239 kts | 161° |
| 2026-05-01 07:46 | 48.99244 | 2.00369 | 5004 ft | 218 kts | 99° |
| 2026-05-01 07:47 | 48.99260 | 2.02668 | 5018 ft | 217 kts | 90° |
| 2026-05-01 07:47 | 48.99201 | 2.04951 | 5019 ft | 216 kts | 99° |
| 2026-05-01 07:47 | 48.98962 | 2.07189 | 5023 ft | 213 kts | 103° |
| 2026-05-01 07:47 | 48.98682 | 2.09420 | 5021 ft | 214 kts | 102° |
| 2026-05-01 07:48 | 48.98182 | 2.13877 | 5017 ft | 213 kts | 102° |
| 2026-05-01 07:48 | 48.97942 | 2.16058 | 5009 ft | 202 kts | 102° |
| 2026-05-01 07:48 | 48.97712 | 2.18132 | 5007 ft | 196 kts | 102° |
| 2026-05-01 07:49 | 48.97482 | 2.20158 | 5008 ft | 196 kts | 102° |
| 2026-05-01 07:49 | 48.97546 | 2.24304 | 5011 ft | 197 kts | 88° |
| 2026-05-01 07:49 | 48.97646 | 2.26405 | 4997 ft | 199 kts | 88° |
| 2026-05-01 07:50 | 48.97756 | 2.28526 | 4839 ft | 201 kts | 88° |
| 2026-05-01 07:50 | 48.97993 | 2.32692 | 4347 ft | 193 kts | 87° |
| 2026-05-01 07:50 | 48.98108 | 2.34736 | 4088 ft | 195 kts | 87° |
| 2026-05-01 07:51 | 48.98220 | 2.36727 | 3843 ft | 182 kts | 87° |
| 2026-05-01 07:51 | 48.98319 | 2.38592 | 3567 ft | 171 kts | 88° |
| 2026-05-01 07:51 | 48.98418 | 2.40340 | 3272 ft | 161 kts | 88° |
| 2026-05-01 07:52 | 48.98595 | 2.43615 | 2707 ft | 151 kts | 89° |
| 2026-05-01 07:52 | 48.98657 | 2.45199 | 2378 ft | 150 kts | 91° |
| 2026-05-01 07:52 | 48.98733 | 2.46799 | 2032 ft | 151 kts | 87° |
| 2026-05-01 07:53 | 48.98941 | 2.49950 | 1489 ft | 147 kts | 88° |
| 2026-05-01 07:53 | 48.99034 | 2.51479 | 1176 ft | 148 kts | 87° |
| 2026-05-01 07:53 | 48.99115 | 2.52995 | 872 ft | 140 kts | 87° |
| 2026-05-01 07:53 | 48.99191 | 2.54490 | 660 ft | 143 kts | 89° |
| 2026-05-01 07:54 | 48.99342 | 2.57449 | 366 ft | 128 kts | 89° |
| 2026-05-01 07:55 | 48.99544 | 2.59500 | 357 ft | 19 kts | 65° |
| 2026-05-01 07:55 | 48.99596 | 2.59661 | 365 ft | 0 kts | 63° |
| 2026-05-01 07:56 | 48.99596 | 2.59662 | 365 ft | 0 kts | 62° |
| 2026-05-01 07:56 | 48.99604 | 2.59674 | 360 ft | 3 kts | 40° |
| 2026-05-01 07:57 | 48.99652 | 2.59694 | 359 ft | 12 kts | 4° |
| 2026-05-01 07:57 | 48.99923 | 2.59669 | 357 ft | 20 kts | 355° |
| 2026-05-01 07:58 | 49.00079 | 2.59487 | 358 ft | 15 kts | 267° |
| 2026-05-01 07:58 | 49.00060 | 2.59142 | 366 ft | 17 kts | 265° |
| 2026-05-01 07:59 | 49.00038 | 2.58766 | 358 ft | 18 kts | 266° |
| 2026-05-01 07:59 | 49.00017 | 2.58362 | 364 ft | 20 kts | 265° |
| 2026-05-01 08:00 | 48.99961 | 2.57477 | 362 ft | 21 kts | 265° |
| 2026-05-01 08:01 | 48.99979 | 2.57004 | 356 ft | 10 kts | 331° |
| 2026-05-01 08:01 | 49.00062 | 2.56989 | 339 ft | 10 kts | 356° |
| 2026-05-01 08:01 | 49.00123 | 2.56943 | 337 ft | 9 kts | 303° |
| 2026-05-01 08:02 | 49.00136 | 2.56858 | 335 ft | 2 kts | 304° |
| 2026-05-01 08:02 | 49.00146 | 2.56845 | 334 ft | 3 kts | 323° |
| 2026-05-01 08:03 | 49.00185 | 2.56829 | 335 ft | 3 kts | 355° |
| 2026-05-01 08:03 | 49.00208 | 2.56826 | 334 ft | 0 kts | 355° |